Time;durP1;ratioP1;P1;durP2;ratioP2;P2;SDS_P1;SDS_P2;PMS_P1;PMS_P2;Temp;Humidity;BMP_temperature;BMP_pressure;BME280_temperature;BME280_humidity;BME280_pressure;Samples;Min_cycle;Max_cycle;Signal;HPM_P1;HPM_P2
2023/05/12 00:01:27;;;;;;;;;;;;;;;8.64;100.00;95387.44;10446146;28;1879;-69
2023/05/12 00:06:30;;;;;;;;;;;;;;;8.62;100.00;95382.38;10443265;28;1836;-70
2023/05/12 00:11:32;;;;;;;;;;;;;;;8.62;100.00;95378.88;10442795;28;1850;-72
2023/05/12 00:16:35;;;;;;;;;;;;;;;8.73;100.00;95379.69;10442140;28;1991;-71
2023/05/12 00:21:37;;;;;;;;;;;;;;;8.75;100.00;95381.00;10444246;28;1896;-71
2023/05/12 00:26:40;;;;;;;;;;;;;;;8.77;100.00;95384.22;10448166;28;2025;-70
2023/05/12 00:31:43;;;;;;;;;;;;;;;8.86;100.00;95379.13;10449262;28;1742;-69
2023/05/12 00:36:45;;;;;;;;;;;;;;;8.93;100.00;95383.09;10441793;28;2376;-69
2023/05/12 00:41:49;;;;;;;;;;;;;;;8.97;100.00;95372.66;10444645;28;1964;-70
2023/05/12 00:46:51;;;;;;;;;;;;;;;8.98;100.00;95371.56;10447131;28;1976;-75
2023/05/12 00:51:53;;;;;;;;;;;;;;;8.94;100.00;95362.47;10447085;28;1968;-71
2023/05/12 00:56:56;;;;;;;;;;;;;;;8.92;100.00;95361.94;10445387;28;1976;-69
2023/05/12 01:01:58;;;;;;;;;;;;;;;8.93;100.00;95371.59;10447254;28;1843;-70
2023/05/12 01:07:01;;;;;;;;;;;;;;;8.88;100.00;95367.03;10444932;28;1889;-70
2023/05/12 01:12:04;;;;;;;;;;;;;;;8.85;100.00;95372.16;10440092;28;1950;-70
2023/05/12 01:17:07;;;;;;;;;;;;;;;8.85;100.00;95372.16;10440989;28;1982;-71
2023/05/12 01:22:09;;;;;;;;;;;;;;;8.85;100.00;95366.78;10440875;28;2050;-71
2023/05/12 01:27:12;;;;;;;;;;;;;;;8.84;100.00;95367.84;10451311;28;2018;-73
2023/05/12 01:32:14;;;;;;;;;;;;;;;8.84;100.00;95359.78;10442338;28;1977;-71
2023/05/12 01:37:17;;;;;;;;;;;;;;;8.83;100.00;95355.53;10444993;28;1910;-70
2023/05/12 01:42:20;;;;;;;;;;;;;;;8.79;100.00;95357.16;10442490;28;2036;-71
2023/05/12 01:47:22;;;;;;;;;;;;;;;8.76;100.00;95355.81;10440228;28;2000;-70
2023/05/12 01:52:25;;;;;;;;;;;;;;;8.73;100.00;95360.91;10437927;28;1922;-70
2023/05/12 01:57:28;;;;;;;;;;;;;;;8.80;100.00;95361.44;10440052;28;4351;-71
2023/05/12 02:02:32;;;;;;;;;;;;;;;8.87;100.00;95370.00;10445291;28;1966;-72
2023/05/12 02:07:35;;;;;;;;;;;;;;;8.79;100.00;95359.84;10421885;28;1927;-74
2023/05/12 02:12:37;;;;;;;;;;;;;;;8.78;100.00;95358.22;10435337;28;2067;-70
2023/05/12 02:17:40;;;;;;;;;;;;;;;8.85;100.00;95361.44;10443563;28;2129;-70
2023/05/12 02:22:43;;;;;;;;;;;;;;;8.78;100.00;95355.53;10444774;28;3237;-70
2023/05/12 02:27:46;;;;;;;;;;;;;;;8.86;100.00;95357.66;10442660;28;1973;-70
2023/05/12 02:32:48;;;;;;;;;;;;;;;8.91;100.00;95352.31;10451691;28;1973;-70
2023/05/12 02:37:51;;;;;;;;;;;;;;;8.90;100.00;95346.09;10432993;28;1923;-70
2023/05/12 02:42:53;;;;;;;;;;;;;;;8.90;100.00;95346.09;10449844;28;1948;-70
2023/05/12 02:47:56;;;;;;;;;;;;;;;8.88;100.00;95352.84;10443341;28;2011;-70
2023/05/12 02:52:58;;;;;;;;;;;;;;;8.90;100.00;95356.03;10443548;28;2047;-72
2023/05/12 02:58:01;;;;;;;;;;;;;;;8.98;100.00;95355.50;10449764;28;4459;-70
2023/05/12 03:03:04;;;;;;;;;;;;;;;8.93;100.00;95352.81;10448216;28;1917;-70
2023/05/12 03:08:06;;;;;;;;;;;;;;;8.86;100.00;95357.66;10447628;28;1973;-70
2023/05/12 03:13:09;;;;;;;;;;;;;;;8.90;100.00;95361.38;10447279;28;2083;-70
2023/05/12 03:18:12;;;;;;;;;;;;;;;8.86;100.00;95361.16;10447589;28;2029;-70
2023/05/12 03:23:15;;;;;;;;;;;;;;;8.74;100.00;95357.97;10446381;28;1987;-76
2023/05/12 03:28:18;;;;;;;;;;;;;;;8.71;100.00;95363.06;10452207;28;1984;-74
2023/05/12 03:33:20;;;;;;;;;;;;;;;8.83;100.00;95360.88;10449245;28;1893;-76
2023/05/12 03:38:22;;;;;;;;;;;;;;;8.85;100.00;95364.13;10445489;28;1928;-76
2023/05/12 03:43:25;;;;;;;;;;;;;;;8.83;100.00;95366.25;10444908;28;1977;-69
2023/05/12 03:48:28;;;;;;;;;;;;;;;8.91;100.00;95365.69;10443593;28;2052;-70
2023/05/12 03:53:30;;;;;;;;;;;;;;;8.98;100.00;95366.22;10445114;28;1905;-70
2023/05/12 03:58:32;;;;;;;;;;;;;;;9.01;100.00;95357.59;10446069;28;4582;-73
2023/05/12 04:03:35;;;;;;;;;;;;;;;9.05;100.00;95364.03;10447325;28;1984;-70
2023/05/12 04:08:37;;;;;;;;;;;;;;;9.16;100.00;95368.28;10444965;28;2233;-70
2023/05/12 04:13:43;;;;;;;;;;;;;;;9.13;100.00;95360.78;10427991;28;2202;-72
2023/05/12 04:18:45;;;;;;;;;;;;;;;9.15;100.00;95364.00;10443469;28;1910;-71
2023/05/12 04:23:48;;;;;;;;;;;;;;;9.25;100.00;95362.34;10448189;28;1922;-72
2023/05/12 04:28:50;;;;;;;;;;;;;;;9.40;100.00;95363.06;10443926;28;2024;-71
2023/05/12 04:33:54;;;;;;;;;;;;;;;9.52;100.00;95373.47;10444070;28;1893;-70
2023/05/12 04:38:57;;;;;;;;;;;;;;;9.84;100.00;95375.72;10441505;28;1951;-70
2023/05/12 04:43:59;;;;;;;;;;;;;;;9.92;100.00;95377.00;10437733;28;1957;-70
2023/05/12 04:49:02;;;;;;;;;;;;;;;10.13;100.00;95378.47;10437218;28;1935;-70
2023/05/12 04:54:04;;;;;;;;;;;;;;;10.33;100.00;95377.56;10439567;28;1953;-70
2023/05/12 04:59:06;;;;;;;;;;;;;;;10.65;100.00;95374.31;10440397;28;4451;-71
2023/05/12 05:04:09;;;;;;;;;;;;;;;10.69;100.00;95378.03;10443867;28;2076;-71
2023/05/12 05:09:11;;;;;;;;;;;;;;;10.85;100.00;95378.69;10440011;28;2020;-71
2023/05/12 05:14:14;;;;;;;;;;;;;;;11.01;100.00;95377.44;10440217;28;2006;-71
2023/05/12 05:19:16;;;;;;;;;;;;;;;11.04;100.00;95376.88;10444618;28;1918;-70
2023/05/12 05:24:36;;;;;;;;;;;;;;;11.08;100.00;95377.91;10418557;28;1973;-71
2023/05/12 05:29:38;;;;;;;;;;;;;;;11.30;100.00;95380.06;10440248;28;1898;-70
2023/05/12 05:34:41;;;;;;;;;;;;;;;11.35;100.00;95382.69;10439634;28;1988;-69
2023/05/12 05:39:43;;;;;;;;;;;;;;;11.20;100.00;95385.59;10449926;28;2076;-70
2023/05/12 05:44:45;;;;;;;;;;;;;;;11.32;100.00;95385.97;10442424;28;1984;-71
2023/05/12 05:49:48;;;;;;;;;;;;;;;11.25;100.00;95382.81;10441722;28;1944;-70
2023/05/12 05:54:50;;;;;;;;;;;;;;;11.14;100.00;95381.34;10441725;28;1995;-72
2023/05/12 05:59:52;;;;;;;;;;;;;;;10.92;100.00;95383.72;10442700;28;4356;-72
2023/05/12 06:04:55;;;;;;;;;;;;;;;11.30;100.00;95387.34;10439353;28;1934;-71
2023/05/12 06:09:57;;;;;;;;;;;;;;;12.12;100.00;95384.38;10438766;28;1906;-72
2023/05/12 06:14:59;;;;;;;;;;;;;;;12.26;100.00;95370.97;10439626;28;2075;-74
2023/05/12 06:20:02;;;;;;;;;;;;;;;12.59;100.00;95377.16;10437594;28;2096;-73
2023/05/12 06:25:04;;;;;;;;;;;;;;;12.65;100.00;95381.38;10436401;28;1938;-73
2023/05/12 06:30:07;;;;;;;;;;;;;;;11.97;100.00;95376.53;10447909;28;1952;-75
2023/05/12 06:35:09;;;;;;;;;;;;;;;12.32;100.00;95384.06;10432073;28;2001;-71
2023/05/12 06:40:11;;;;;;;;;;;;;;;12.53;100.00;95381.03;10434537;28;1910;-75
2023/05/12 06:45:14;;;;;;;;;;;;;;;12.62;100.00;95387.38;10439467;28;1972;-72
2023/05/12 06:50:16;;;;;;;;;;;;;;;12.61;100.00;95385.78;10435040;28;1949;-72
2023/05/12 06:55:19;;;;;;;;;;;;;;;12.55;100.00;95389.66;10437217;28;1996;-72
2023/05/12 07:00:22;;;;;;;;;;;;;;;12.32;100.00;95384.06;10438619;28;1994;-71
2023/05/12 07:05:24;;;;;;;;;;;;;;;12.28;100.00;95385.78;10437881;28;1946;-73
2023/05/12 07:10:27;;;;;;;;;;;;;;;12.14;100.00;95399.16;10435902;28;1911;-72
2023/05/12 07:15:29;;;;;;;;;;;;;;;12.29;100.00;95400.84;10433945;28;1968;-72
2023/05/12 07:20:34;;;;;;;;;;;;;;;11.75;100.00;95394.03;10447281;28;1980;-73
2023/05/12 07:25:36;;;;;;;;;;;;;;;11.46;100.00;95385.28;10445452;28;1968;-73
2023/05/12 07:30:39;;;;;;;;;;;;;;;11.31;100.00;95392.41;10443849;28;1890;-74
2023/05/12 07:35:42;;;;;;;;;;;;;;;11.83;100.00;95392.59;10443688;28;1925;-72
2023/05/12 07:40:44;;;;;;;;;;;;;;;12.17;100.00;95381.63;10444748;28;1981;-72
2023/05/12 07:45:47;;;;;;;;;;;;;;;12.20;100.00;95386.41;10446480;28;1755;-73
2023/05/12 07:50:49;;;;;;;;;;;;;;;12.37;100.00;95384.00;10432932;28;1931;-72
2023/05/12 07:55:51;;;;;;;;;;;;;;;12.67;100.00;95390.00;10435159;28;2160;-72
2023/05/12 08:00:54;;;;;;;;;;;;;;;12.35;100.00;95382.69;10436402;28;1956;-74
2023/05/12 08:05:56;;;;;;;;;;;;;;;12.40;100.00;95375.31;10438268;28;1859;-75
2023/05/12 08:10:59;;;;;;;;;;;;;;;11.95;100.00;95395.66;10443636;28;1996;-73
2023/05/12 08:16:01;;;;;;;;;;;;;;;11.66;100.00;95398.47;10420129;28;1630;-74
2023/05/12 08:21:04;;;;;;;;;;;;;;;11.73;100.00;95398.91;10431803;28;1993;-74
2023/05/12 08:26:06;;;;;;;;;;;;;;;12.13;100.00;95386.00;10437066;28;1843;-74
2023/05/12 08:31:08;;;;;;;;;;;;;;;12.51;100.00;95391.31;10433049;28;1909;-75
2023/05/12 08:36:11;;;;;;;;;;;;;;;13.12;100.00;95390.28;10435887;28;1831;-74
2023/05/12 08:41:13;;;;;;;;;;;;;;;13.83;100.00;95380.75;10437799;28;1906;-72
2023/05/12 08:46:16;;;;;;;;;;;;;;;14.83;100.00;95375.97;10434032;28;1866;-74
2023/05/12 08:51:18;;;;;;;;;;;;;;;15.99;100.00;95369.53;10436170;28;2050;-72
2023/05/12 08:56:20;;;;;;;;;;;;;;;15.87;100.00;95376.38;10432262;28;4466;-72
2023/05/12 09:01:26;;;;;;;;;;;;;;;15.79;100.00;95365.53;10434495;28;1977;-76
2023/05/12 09:06:28;;;;;;;;;;;;;;;15.20;100.00;95376.63;10437050;28;1847;-73
2023/05/12 09:11:31;;;;;;;;;;;;;;;14.41;100.00;95382.66;10406169;28;1895;-72
2023/05/12 09:16:33;;;;;;;;;;;;;;;14.21;100.00;95391.25;10430888;28;1915;-73
2023/05/12 09:21:36;;;;;;;;;;;;;;;14.87;100.00;95378.84;10426504;28;1918;-74
2023/05/12 09:26:38;;;;;;;;;;;;;;;15.02;100.00;95378.47;10421414;28;1983;-74
2023/05/12 09:31:40;;;;;;;;;;;;;;;15.64;100.00;95378.38;10409200;28;1886;-72
2023/05/12 09:36:44;;;;;;;;;;;;;;;15.12;100.00;95375.47;10430534;28;1837;-72
2023/05/12 09:41:47;;;;;;;;;;;;;;;15.24;100.00;95372.19;10430365;28;1977;-72
2023/05/12 09:46:50;;;;;;;;;;;;;;;15.23;100.00;95375.22;10419868;28;2132;-72
2023/05/12 09:51:53;;;;;;;;;;;;;;;15.19;100.00;95385.84;10433232;28;1963;-72
2023/05/12 09:56:55;;;;;;;;;;;;;;;14.75;100.00;95379.41;10433294;28;4458;-73
2023/05/12 10:01:57;;;;;;;;;;;;;;;15.06;100.00;95382.13;10440840;28;1967;-72
2023/05/12 10:07:00;;;;;;;;;;;;;;;14.36;100.00;95379.28;10441600;28;1521;-72
2023/05/12 10:12:03;;;;;;;;;;;;;;;14.01;100.00;95379.81;10437085;28;1565;-74
2023/05/12 10:17:06;;;;;;;;;;;;;;;14.39;100.00;95378.69;10435222;28;2230;-71
2023/05/12 10:22:08;;;;;;;;;;;;;;;14.61;100.00;95386.81;10438217;28;1986;-70
2023/05/12 10:27:10;;;;;;;;;;;;;;;14.19;100.00;95394.28;10440189;28;1806;-74
2023/05/12 10:32:13;;;;;;;;;;;;;;;14.11;100.00;95394.19;10436005;28;1943;-74
2023/05/12 10:37:15;;;;;;;;;;;;;;;14.06;100.00;95389.72;10435380;28;1903;-75
2023/05/12 10:42:18;;;;;;;;;;;;;;;13.95;100.00;95391.84;10428519;28;2248;-72
2023/05/12 10:47:20;;;;;;;;;;;;;;;13.60;100.00;95390.69;10436342;28;1946;-73
2023/05/12 10:52:22;;;;;;;;;;;;;;;13.10;100.00;95389.75;10444010;28;1840;-75
2023/05/12 10:57:25;;;;;;;;;;;;;;;13.05;100.00;95400.66;10445681;28;1865;-72
2023/05/12 11:02:29;;;;;;;;;;;;;;;13.31;100.00;95398.31;10449869;28;1906;-75
2023/05/12 11:07:33;;;;;;;;;;;;;;;13.32;100.00;95406.09;10449778;28;1937;-73
2023/05/12 11:12:37;;;;;;;;;;;;;;;13.37;100.00;95406.00;10432880;28;1839;-71
2023/05/12 11:17:40;;;;;;;;;;;;;;;13.36;100.00;95406.28;10429311;28;1864;-73
2023/05/12 11:22:43;;;;;;;;;;;;;;;12.71;100.00;95417.94;10435788;28;1987;-77
2023/05/12 11:27:45;;;;;;;;;;;;;;;12.52;100.00;95415.28;10441222;28;2084;-74
2023/05/12 11:32:49;;;;;;;;;;;;;;;12.80;100.00;95416.19;10443136;28;1855;-74
2023/05/12 11:37:51;;;;;;;;;;;;;;;13.09;100.00;95417.84;10441035;28;2001;-74
2023/05/12 11:42:54;;;;;;;;;;;;;;;13.40;100.00;95404.59;10444494;28;1906;-76
2023/05/12 11:47:57;;;;;;;;;;;;;;;13.36;100.00;95411.69;10447220;28;2033;-73
2023/05/12 11:53:00;;;;;;;;;;;;;;;13.21;100.00;95416.28;10441527;28;1898;-74
2023/05/12 11:58:03;;;;;;;;;;;;;;;13.47;100.00;95413.09;10436378;28;4428;-74
2023/05/12 12:03:06;;;;;;;;;;;;;;;13.70;100.00;95416.69;10444302;28;1912;-74
2023/05/12 12:08:11;;;;;;;;;;;;;;;13.25;100.00;95416.50;10441012;28;1903;-75
2023/05/12 12:13:13;;;;;;;;;;;;;;;12.74;100.00;95424.66;10439873;28;1894;-74
2023/05/12 12:18:16;;;;;;;;;;;;;;;12.79;100.00;95427.25;10438106;28;1851;-74
2023/05/12 12:23:19;;;;;;;;;;;;;;;12.81;100.00;95427.78;10437977;28;1979;-74
2023/05/12 12:28:22;;;;;;;;;;;;;;;12.72;100.00;95424.94;10440805;28;1875;-74
2023/05/12 12:33:25;;;;;;;;;;;;;;;12.67;100.00;95427.75;10435415;28;2202;-75
2023/05/12 12:38:28;;;;;;;;;;;;;;;12.45;100.00;95429.16;10433053;28;1910;-74
2023/05/12 12:43:30;;;;;;;;;;;;;;;12.37;100.00;95429.81;10439456;28;1975;-78
2023/05/12 12:48:32;;;;;;;;;;;;;;;12.65;100.00;95435.31;10441167;28;1906;-76
2023/05/12 12:53:36;;;;;;;;;;;;;;;12.92;100.00;95434.59;10439028;28;1851;-76
2023/05/12 12:58:39;;;;;;;;;;;;;;;12.97;100.00;95429.91;10438009;28;4506;-79
2023/05/12 13:03:42;;;;;;;;;;;;;;;12.85;100.00;95434.16;10437273;28;1941;-74
2023/05/12 13:08:46;;;;;;;;;;;;;;;13.20;100.00;95424.66;10429689;28;2062;-73
2023/05/12 13:13:48;;;;;;;;;;;;;;;13.48;100.00;95431.69;10438788;28;2021;-72
2023/05/12 13:18:51;;;;;;;;;;;;;;;13.74;100.00;95423.06;10440155;28;1894;-75
2023/05/12 13:23:53;;;;;;;;;;;;;;;13.58;100.00;95424.50;10440411;28;1947;-76
2023/05/12 13:28:56;;;;;;;;;;;;;;;14.04;100.00;95422.44;10436413;28;1875;-74
2023/05/12 13:33:58;;;;;;;;;;;;;;;14.03;100.00;95420.03;10440465;28;2097;-75
2023/05/12 13:39:02;;;;;;;;;;;;;;;13.94;100.00;95419.97;10434468;28;1909;-74
2023/05/12 13:44:05;;;;;;;;;;;;;;;13.89;100.00;95424.66;10437643;28;1910;-74
2023/05/12 13:49:08;;;;;;;;;;;;;;;13.32;100.00;95422.28;10437294;28;2017;-75
2023/05/12 13:54:10;;;;;;;;;;;;;;;13.24;100.00;95425.69;10436591;28;2127;-73
2023/05/12 13:59:13;;;;;;;;;;;;;;;13.10;100.00;95425.63;10436331;28;4508;-73
2023/05/12 14:04:16;;;;;;;;;;;;;;;12.89;100.00;95430.59;10438800;28;2332;-79
2023/05/12 14:09:19;;;;;;;;;;;;;;;12.81;100.00;95428.56;10431388;28;1914;-75
2023/05/12 14:14:21;;;;;;;;;;;;;;;12.77;100.00;95440.25;10435794;28;1899;-74
2023/05/12 14:19:24;;;;;;;;;;;;;;;12.72;100.00;95443.81;10435825;28;2052;-75
2023/05/12 14:24:27;;;;;;;;;;;;;;;12.26;100.00;95458.00;10436349;28;1923;-76
2023/05/12 14:29:30;;;;;;;;;;;;;;;12.21;100.00;95452.69;10443506;28;2149;-76
2023/05/12 14:34:33;;;;;;;;;;;;;;;12.40;100.00;95445.38;10438531;28;1918;-75
2023/05/12 14:39:36;;;;;;;;;;;;;;;12.46;100.00;95456.91;10441223;28;1859;-75
2023/05/12 14:44:38;;;;;;;;;;;;;;;12.73;100.00;95450.84;10441354;28;1949;-76
2023/05/12 14:49:41;;;;;;;;;;;;;;;12.43;100.00;95450.22;10438493;28;1990;-74
2023/05/12 14:54:46;;;;;;;;;;;;;;;12.45;100.00;95453.41;10439146;28;1975;-77
2023/05/12 14:59:52;;;;;;;;;;;;;;;12.32;100.00;95458.72;10445855;28;4538;-76
2023/05/12 15:04:55;;;;;;;;;;;;;;;12.27;100.00;95461.50;10443389;28;1979;-75
2023/05/12 15:09:57;;;;;;;;;;;;;;;12.25;100.00;95463.69;10443834;28;1847;-74
2023/05/12 15:15:01;;;;;;;;;;;;;;;12.11;100.00;95456.34;10442472;28;2081;-73
2023/05/12 15:20:04;;;;;;;;;;;;;;;12.05;100.00;95459.41;10448301;28;1971;-75
2023/05/12 15:25:06;;;;;;;;;;;;;;;12.15;100.00;95464.63;10440522;28;2001;-73
2023/05/12 15:30:08;;;;;;;;;;;;;;;11.88;100.00;95463.38;10444333;28;1907;-75
2023/05/12 15:35:11;;;;;;;;;;;;;;;11.93;100.00;95462.50;10442754;28;1919;-74
2023/05/12 15:40:13;;;;;;;;;;;;;;;12.03;100.00;95473.16;10433960;28;1906;-77
2023/05/12 15:45:16;;;;;;;;;;;;;;;11.99;100.00;95465.94;10442872;28;2096;-76
2023/05/12 15:50:21;;;;;;;;;;;;;;;11.85;100.00;95474.72;10439033;28;1938;-75
2023/05/12 15:55:24;;;;;;;;;;;;;;;11.95;100.00;95467.59;10431015;28;4447;-74
2023/05/12 16:00:26;;;;;;;;;;;;;;;12.09;100.00;95471.19;10431332;28;1910;-75
2023/05/12 16:05:30;;;;;;;;;;;;;;;11.96;100.00;95469.19;10431755;28;1939;-74
2023/05/12 16:10:33;;;;;;;;;;;;;;;12.16;100.00;95466.25;10440589;28;1959;-75
2023/05/12 16:15:35;;;;;;;;;;;;;;;11.96;100.00;95474.59;10425350;28;1974;-74
2023/05/12 16:20:38;;;;;;;;;;;;;;;11.97;100.00;95471.63;10438017;28;2167;-74
2023/05/12 16:25:40;;;;;;;;;;;;;;;11.85;100.00;95479.31;10437842;28;1864;-74
2023/05/12 16:30:43;;;;;;;;;;;;;;;11.92;100.00;95476.28;10434861;28;2042;-75
2023/05/12 16:35:46;;;;;;;;;;;;;;;11.71;100.00;95470.31;10436282;28;1849;-75
2023/05/12 16:40:48;;;;;;;;;;;;;;;11.65;100.00;95485.72;10438391;28;2028;-77
2023/05/12 16:45:51;;;;;;;;;;;;;;;11.52;100.00;95478.34;10437264;28;1847;-75
2023/05/12 16:50:53;;;;;;;;;;;;;;;11.51;100.00;95484.78;10436576;28;1890;-75
2023/05/12 16:55:56;;;;;;;;;;;;;;;11.33;100.00;95484.44;10438101;28;4418;-74
2023/05/12 17:00:58;;;;;;;;;;;;;;;11.17;100.00;95485.69;10438996;28;2027;-75
2023/05/12 17:06:00;;;;;;;;;;;;;;;11.16;100.00;95497.53;10431563;28;1895;-76
2023/05/12 17:11:03;;;;;;;;;;;;;;;11.30;100.00;95493.06;10434264;28;1929;-74
2023/05/12 17:16:05;;;;;;;;;;;;;;;11.19;100.00;95498.84;10435237;28;2144;-75
2023/05/12 17:21:10;;;;;;;;;;;;;;;11.04;100.00;95505.16;10429180;28;1902;-76
2023/05/12 17:26:12;;;;;;;;;;;;;;;11.08;100.00;95511.59;10433204;28;1866;-76
2023/05/12 17:31:15;;;;;;;;;;;;;;;10.88;100.00;95507.19;10442624;28;2089;-77
2023/05/12 17:36:18;;;;;;;;;;;;;;;10.86;100.00;95503.97;10439013;28;2022;-77
2023/05/12 17:41:20;;;;;;;;;;;;;;;10.77;100.00;95517.22;10438593;28;1922;-75
2023/05/12 17:46:23;;;;;;;;;;;;;;;10.74;100.00;95523.16;10436658;28;1918;-74
2023/05/12 17:51:25;;;;;;;;;;;;;;;10.73;100.00;95521.53;10436749;28;2033;-74
2023/05/12 17:56:27;;;;;;;;;;;;;;;10.75;100.00;95529.31;10438647;28;4517;-74
2023/05/12 18:01:31;;;;;;;;;;;;;;;10.61;100.00;95537.22;10433112;28;1968;-74
2023/05/12 18:06:34;;;;;;;;;;;;;;;10.58;100.00;95534.31;10431286;28;1927;-75
2023/05/12 18:11:36;;;;;;;;;;;;;;;10.51;100.00;95540.00;10431048;28;2145;-76
2023/05/12 18:16:39;;;;;;;;;;;;;;;10.43;100.00;95535.19;10433792;28;1866;-76
2023/05/12 18:21:41;;;;;;;;;;;;;;;10.46;100.00;95537.34;10437099;28;1914;-74
2023/05/12 18:26:44;;;;;;;;;;;;;;;10.43;100.00;95543.25;10434687;28;2005;-75
2023/05/12 18:31:46;;;;;;;;;;;;;;;10.36;100.00;95540.88;10413210;28;1941;-74
2023/05/12 18:36:49;;;;;;;;;;;;;;;10.33;100.00;95548.69;10439369;28;1895;-71
2023/05/12 18:41:51;;;;;;;;;;;;;;;10.35;100.00;95549.22;10445626;28;2077;-73
2023/05/12 18:46:53;;;;;;;;;;;;;;;10.42;100.00;95547.03;10440552;28;1944;-71
2023/05/12 18:52:16;;;;;;;;;;;;;;;10.28;100.00;95547.63;10432560;28;1935;-71
2023/05/12 18:57:39;;;;;;;;;;;;;;;10.24;100.00;95551.13;10429877;28;4479;-71
2023/05/12 19:03:02;;;;;;;;;;;;;;;10.21;100.00;95547.09;10433110;28;1914;-70
2023/05/12 19:08:25;;;;;;;;;;;;;;;10.11;100.00;95552.50;10436426;28;2077;-71
2023/05/12 19:13:49;;;;;;;;;;;;;;;10.19;100.00;95559.22;10437965;28;1835;-78
2023/05/12 19:19:12;;;;;;;;;;;;;;;10.07;100.00;95554.16;10435185;28;1936;-71
2023/05/12 19:24:36;;;;;;;;;;;;;;;10.12;100.00;95558.72;10438260;28;1995;-71
2023/05/12 19:30:01;;;;;;;;;;;;;;;10.35;100.00;95566.13;10433724;28;2223;-85
2023/05/12 19:35:24;;;;;;;;;;;;;;;10.41;100.00;95573.09;10468035;28;1853;-78
2023/05/12 19:40:47;;;;;;;;;;;;;;;10.51;100.00;95572.25;10459856;28;1852;-80
2023/05/12 19:46:10;;;;;;;;;;;;;;;10.26;100.00;95565.91;10449628;28;1972;-80
2023/05/12 19:51:33;;;;;;;;;;;;;;;10.27;100.00;95572.09;10450100;28;1971;-77
2023/05/12 19:56:56;;;;;;;;;;;;;;;10.01;100.00;95568.69;10436119;28;4458;-71
2023/05/12 20:02:19;;;;;;;;;;;;;;;9.89;100.00;95576.25;10432989;28;1975;-71
2023/05/12 20:07:21;;;;;;;;;;;;;;;9.81;100.00;95571.44;10418658;28;2035;-71
2023/05/12 20:12:23;;;;;;;;;;;;;;;9.73;100.00;95568.25;10423146;28;1907;-71
2023/05/12 20:17:26;;;;;;;;;;;;;;;9.66;100.00;95566.91;10434374;28;1879;-72
2023/05/12 20:22:28;;;;;;;;;;;;;;;9.66;100.00;95570.38;10430137;28;1906;-72
2023/05/12 20:27:31;;;;;;;;;;;;;;;9.64;100.00;95563.69;10431201;28;8238;-70
2023/05/12 20:32:33;;;;;;;;;;;;;;;9.65;100.00;95571.47;10416852;28;8229;-70
2023/05/12 20:37:37;;;;;;;;;;;;;;;9.60;100.00;95563.44;10440289;28;5126;-70
2023/05/12 20:42:40;;;;;;;;;;;;;;;9.59;100.00;95571.75;10434395;28;5375;-69
2023/05/12 20:47:42;;;;;;;;;;;;;;;9.51;100.00;95573.13;10431718;28;2010;-71
2023/05/12 20:52:46;;;;;;;;;;;;;;;9.53;100.00;95573.66;10426003;28;1874;-70
2023/05/12 20:57:48;;;;;;;;;;;;;;;9.57;100.00;95569.34;10430269;28;1966;-70
2023/05/12 21:02:51;;;;;;;;;;;;;;;9.47;100.00;95564.00;10427815;28;8293;-78
2023/05/12 21:07:54;;;;;;;;;;;;;;;9.47;100.00;95570.16;10432063;28;1914;-70
2023/05/12 21:12:56;;;;;;;;;;;;;;;9.41;100.00;95573.13;10425965;28;1903;-70
2023/05/12 21:17:59;;;;;;;;;;;;;;;9.38;100.00;95577.16;10429376;28;1941;-72
2023/05/12 21:23:02;;;;;;;;;;;;;;;9.46;100.00;95575.81;10430173;28;1979;-70
2023/05/12 21:28:05;;;;;;;;;;;;;;;9.37;100.00;95574.75;10436199;28;1860;-70
2023/05/12 21:33:08;;;;;;;;;;;;;;;9.39;100.00;95569.91;10437328;28;1853;-70
2023/05/12 21:38:11;;;;;;;;;;;;;;;9.42;100.00;95572.06;10436976;28;8485;-69
2023/05/12 21:43:13;;;;;;;;;;;;;;;9.38;100.00;95576.38;10444595;28;1902;-75
2023/05/12 21:48:16;;;;;;;;;;;;;;;9.31;100.00;95575.84;10446198;28;1717;-70
2023/05/12 21:53:19;;;;;;;;;;;;;;;9.27;100.00;95580.13;10441276;28;1888;-73
2023/05/12 21:58:22;;;;;;;;;;;;;;;9.26;100.00;95583.88;10437307;28;1915;-73
2023/05/12 22:03:25;;;;;;;;;;;;;;;9.20;100.00;95578.53;10436733;28;1898;-71
2023/05/12 22:08:27;;;;;;;;;;;;;;;9.23;100.00;95589.81;10442294;28;2068;-76
2023/05/12 22:13:29;;;;;;;;;;;;;;;9.19;100.00;95587.63;10439075;28;1864;-75
2023/05/12 22:18:32;;;;;;;;;;;;;;;9.25;100.00;95582.28;10434117;28;2014;-71
2023/05/12 22:23:34;;;;;;;;;;;;;;;9.30;100.00;95580.41;10435265;28;1975;-71
2023/05/12 22:28:36;;;;;;;;;;;;;;;9.23;100.00;95579.06;10435514;28;1910;-71
2023/05/12 22:33:39;;;;;;;;;;;;;;;9.22;100.00;95580.94;10431654;28;5189;-72
2023/05/12 22:38:41;;;;;;;;;;;;;;;9.16;100.00;95568.59;10436190;28;1902;-69
2023/05/12 22:43:44;;;;;;;;;;;;;;;9.18;100.00;95578.00;10438781;28;1959;-71
2023/05/12 22:48:46;;;;;;;;;;;;;;;9.24;100.00;95570.75;10437464;28;2140;-71
2023/05/12 22:53:48;;;;;;;;;;;;;;;9.21;100.00;95572.06;10427779;28;1910;-71
2023/05/12 22:58:50;;;;;;;;;;;;;;;9.11;100.00;95566.75;10442892;28;1907;-70
2023/05/12 23:03:53;;;;;;;;;;;;;;;9.10;100.00;95573.19;10441889;28;1963;-72
2023/05/12 23:08:55;;;;;;;;;;;;;;;9.04;100.00;95566.22;10442283;28;2041;-71
2023/05/12 23:13:58;;;;;;;;;;;;;;;9.09;100.00;95562.69;10443917;28;1906;-71
2023/05/12 23:19:00;;;;;;;;;;;;;;;9.08;100.00;95564.56;10441576;28;1871;-70
2023/05/12 23:24:02;;;;;;;;;;;;;;;9.01;100.00;95566.72;10441800;28;2040;-70
2023/05/12 23:29:05;;;;;;;;;;;;;;;9.06;100.00;95558.69;10444796;28;2385;-69
2023/05/12 23:34:07;;;;;;;;;;;;;;;9.05;100.00;95565.13;10437803;28;5321;-73
2023/05/12 23:39:09;;;;;;;;;;;;;;;8.98;100.00;95564.59;10442834;28;1919;-70
2023/05/12 23:44:12;;;;;;;;;;;;;;;8.98;100.00;95559.25;10442935;28;1973;-70
2023/05/12 23:49:14;;;;;;;;;;;;;;;8.97;100.00;95554.94;10443470;28;2033;-70
2023/05/12 23:54:16;;;;;;;;;;;;;;;8.90;100.00;95557.88;10436981;28;1910;-69
2023/05/12 23:59:18;;;;;;;;;;;;;;;8.94;100.00;95548.22;10437960;28;2066;-70
